createdAt,value
2023-01-13T00:01:29.344Z,7.60
2023-01-13T00:03:57.817Z,7.60
2023-01-13T00:06:26.546Z,7.60
2023-01-13T00:08:54.539Z,7.61
2023-01-13T00:11:23.208Z,7.60
2023-01-13T00:13:51.124Z,7.62
2023-01-13T00:16:19.707Z,7.63
2023-01-13T00:18:48.513Z,7.61
2023-01-13T00:21:24.915Z,7.61
2023-01-13T00:23:54.214Z,7.60
2023-01-13T00:26:25.922Z,7.60
2023-01-13T00:28:58.761Z,7.61
2023-01-13T00:31:28.715Z,7.62
2023-01-13T00:33:58.648Z,7.61
2023-01-13T00:36:27.494Z,7.59
2023-01-13T00:38:55.328Z,7.59
2023-01-13T00:41:25.527Z,7.58
2023-01-13T00:43:53.560Z,7.60
2023-01-13T00:46:23.058Z,7.59
2023-01-13T00:48:51.699Z,7.61
2023-01-13T00:51:21.673Z,7.62
2023-01-13T00:53:51.729Z,7.61
2023-01-13T00:56:40.847Z,7.62
2023-01-13T00:59:12.946Z,7.61
2023-01-13T01:01:41.892Z,7.60
2023-01-13T01:04:09.540Z,7.60
2023-01-13T01:06:37.565Z,7.63
2023-01-13T01:09:05.983Z,7.60
2023-01-13T01:11:34.363Z,7.61
2023-01-13T01:14:03.866Z,7.59
2023-01-13T01:16:33.279Z,7.61
2023-01-13T01:19:02.013Z,7.62
2023-01-13T01:21:30.067Z,7.63
2023-01-13T01:24:04.201Z,7.63
2023-01-13T01:26:33.013Z,7.64
2023-01-13T01:29:02.331Z,7.65
2023-01-13T01:31:32.517Z,7.65
2023-01-13T01:34:01.566Z,7.61
2023-01-13T01:36:30.366Z,7.60
2023-01-13T01:39:00.014Z,7.61
2023-01-13T01:41:32.599Z,7.62
2023-01-13T01:44:41.760Z,7.62
2023-01-13T01:47:18.125Z,7.61
2023-01-13T01:49:47.899Z,7.62
2023-01-13T01:52:26.609Z,7.62
2023-01-13T01:55:34.954Z,7.58
2023-01-13T01:58:15.756Z,7.55
2023-01-13T02:00:43.594Z,7.56
2023-01-13T02:03:11.767Z,7.56
2023-01-13T02:05:39.593Z,7.55
2023-01-13T02:08:11.426Z,7.56
2023-01-13T02:10:41.505Z,7.56
2023-01-13T02:13:12.313Z,7.58
2023-01-13T02:16:02.999Z,7.61
2023-01-13T02:19:00.390Z,7.60
2023-01-13T02:22:07.433Z,7.59
2023-01-13T02:25:05.556Z,7.58
2023-01-13T02:27:58.145Z,7.56
2023-01-13T02:31:28.966Z,7.54
2023-01-13T02:34:20.302Z,7.53
2023-01-13T02:36:51.124Z,7.54
2023-01-13T02:39:48.769Z,7.56
2023-01-13T02:42:53.136Z,7.56
2023-01-13T02:45:43.196Z,7.57
2023-01-13T02:48:14.032Z,7.57
2023-01-13T02:51:12.315Z,7.61
2023-01-13T02:54:06.814Z,7.62
2023-01-13T02:56:41.198Z,7.63
2023-01-13T02:59:10.537Z,7.61
2023-01-13T03:01:38.495Z,7.62
2023-01-13T03:04:51.712Z,7.64
2023-01-13T03:07:57.105Z,7.61
2023-01-13T03:10:49.214Z,7.61
2023-01-13T03:14:05.678Z,7.62
2023-01-13T03:17:11.267Z,7.62
2023-01-13T03:20:08.799Z,7.61
2023-01-13T03:23:30.076Z,7.60
2023-01-13T03:26:31.137Z,7.59
2023-01-13T03:29:13.697Z,7.59
2023-01-13T03:32:02.956Z,7.61
2023-01-13T03:34:39.831Z,7.64
2023-01-13T03:37:09.537Z,7.63
2023-01-13T03:39:43.645Z,7.63
2023-01-13T03:42:25.268Z,7.63
2023-01-13T03:45:06.631Z,7.67
2023-01-13T03:47:47.000Z,7.73
2023-01-13T03:50:20.699Z,7.74
2023-01-13T03:53:00.737Z,7.73
2023-01-13T03:55:38.019Z,7.76
2023-01-13T03:58:20.423Z,7.76
2023-01-13T04:01:18.952Z,7.77
2023-01-13T04:04:06.550Z,7.80
2023-01-13T04:07:12.944Z,7.81
2023-01-13T04:10:02.730Z,7.81
2023-01-13T04:13:00.887Z,7.82
2023-01-13T04:15:44.138Z,7.83
2023-01-13T04:18:27.844Z,7.82
2023-01-13T04:20:59.413Z,7.86
2023-01-13T04:23:28.232Z,7.84
2023-01-13T04:25:56.626Z,7.84
2023-01-13T04:28:25.837Z,7.86
2023-01-13T04:30:53.756Z,7.85
2023-01-13T04:33:21.822Z,7.86
2023-01-13T04:35:49.526Z,7.86
2023-01-13T04:38:20.691Z,7.86
2023-01-13T04:40:49.194Z,7.85
2023-01-13T04:43:17.562Z,7.81
2023-01-13T04:45:45.268Z,7.82
2023-01-13T04:48:13.347Z,7.81
2023-01-13T04:50:41.854Z,7.84
2023-01-13T04:53:09.907Z,7.85
2023-01-13T04:55:37.430Z,7.85
2023-01-13T04:58:08.560Z,7.86
2023-01-13T05:00:36.719Z,7.88
2023-01-13T05:03:05.039Z,7.89
2023-01-13T05:05:32.868Z,7.90
2023-01-13T05:08:00.763Z,7.91
2023-01-13T05:10:28.764Z,7.90
2023-01-13T05:13:15.533Z,7.89
2023-01-13T05:16:02.692Z,7.91
2023-01-13T05:18:31.600Z,7.93
2023-01-13T05:20:59.204Z,7.91
2023-01-13T05:23:46.185Z,7.90
2023-01-13T05:26:13.853Z,7.88
2023-01-13T05:28:41.616Z,7.86
2023-01-13T05:31:09.154Z,7.88
2023-01-13T05:33:36.993Z,7.89
2023-01-13T05:36:05.854Z,7.91
2023-01-13T05:38:33.672Z,7.91
2023-01-13T05:41:20.095Z,7.90
2023-01-13T05:43:47.876Z,7.90
2023-01-13T05:46:17.788Z,7.86
2023-01-13T05:48:46.020Z,7.86
2023-01-13T05:51:13.924Z,7.85
2023-01-13T05:53:42.071Z,7.83
2023-01-13T05:56:11.260Z,7.83
2023-01-13T05:58:39.167Z,7.82
2023-01-13T06:01:10.807Z,7.84
2023-01-13T06:03:38.938Z,7.83
2023-01-13T06:06:09.078Z,7.86
2023-01-13T06:08:39.566Z,7.86
2023-01-13T06:11:07.879Z,7.88
2023-01-13T06:13:35.762Z,7.85
2023-01-13T06:16:03.529Z,7.86
2023-01-13T06:18:31.396Z,7.89
2023-01-13T06:20:58.968Z,7.88
2023-01-13T06:23:27.262Z,7.90
2023-01-13T06:26:36.247Z,7.90
2023-01-13T06:29:04.679Z,7.89
2023-01-13T06:31:37.155Z,7.90
2023-01-13T06:34:11.663Z,7.92
2023-01-13T06:36:48.968Z,7.92
2023-01-13T06:39:22.102Z,7.92
2023-01-13T06:42:11.092Z,7.91
2023-01-13T06:44:39.325Z,7.95
2023-01-13T06:47:07.313Z,7.96
2023-01-13T06:49:35.327Z,7.98
2023-01-13T06:52:03.229Z,8.00
2023-01-13T06:54:31.269Z,8.02
2023-01-13T06:56:58.908Z,8.04
2023-01-13T06:59:27.092Z,8.06
2023-01-13T07:01:54.864Z,8.04
2023-01-13T07:04:22.976Z,8.13
2023-01-13T07:06:50.595Z,8.32
2023-01-13T07:09:18.696Z,8.38
2023-01-13T07:11:46.834Z,8.39
2023-01-13T07:14:33.502Z,8.39
2023-01-13T07:17:01.326Z,8.39
2023-01-13T07:19:29.335Z,8.39
2023-01-13T07:21:56.985Z,8.40
2023-01-13T07:24:25.169Z,8.41
2023-01-13T07:26:52.979Z,8.43
2023-01-13T07:29:21.046Z,8.43
2023-01-13T07:31:50.075Z,8.43
2023-01-13T07:34:18.383Z,8.46
2023-01-13T07:36:46.081Z,8.48
2023-01-13T07:39:14.308Z,8.50
2023-01-13T07:42:00.622Z,8.50
2023-01-13T07:44:28.466Z,8.52
2023-01-13T07:46:56.248Z,8.54
2023-01-13T07:49:24.453Z,8.56
2023-01-13T07:51:52.010Z,8.57
2023-01-13T07:54:25.512Z,8.60
2023-01-13T07:56:59.280Z,8.67
2023-01-13T07:59:27.163Z,8.70
2023-01-13T08:01:54.953Z,8.73
2023-01-13T08:04:23.066Z,8.73
2023-01-13T08:07:09.699Z,8.76
2023-01-13T08:09:37.693Z,8.72
2023-01-13T08:12:23.961Z,8.70
2023-01-13T08:14:54.085Z,8.64
2023-01-13T08:17:21.574Z,8.63
2023-01-13T08:19:49.507Z,8.45
2023-01-13T08:22:17.186Z,8.37
2023-01-13T08:24:45.139Z,8.36
2023-01-13T08:27:12.849Z,8.36
2023-01-13T08:29:41.048Z,8.40
2023-01-13T08:32:08.725Z,8.43
2023-01-13T08:34:37.201Z,8.43
2023-01-13T08:37:04.769Z,8.41
2023-01-13T08:39:32.773Z,8.42
2023-01-13T08:42:00.433Z,8.43
2023-01-13T08:44:31.063Z,8.41
2023-01-13T08:46:59.933Z,8.44
2023-01-13T08:49:28.026Z,8.46
2023-01-13T08:51:55.787Z,8.47
2023-01-13T08:54:24.062Z,8.49
2023-01-13T08:56:51.980Z,8.53
2023-01-13T08:59:20.936Z,8.60
2023-01-13T09:01:48.641Z,8.63
2023-01-13T09:04:24.423Z,8.70
2023-01-13T09:06:52.152Z,8.74
2023-01-13T09:09:21.281Z,8.84
2023-01-13T09:12:09.950Z,8.90
2023-01-13T09:14:40.061Z,8.96
2023-01-13T09:17:08.553Z,8.98
2023-01-13T09:19:37.362Z,8.99
2023-01-13T09:22:05.236Z,9.02
2023-01-13T09:24:33.179Z,8.99
2023-01-13T09:27:00.722Z,8.94
2023-01-13T09:29:28.889Z,8.94
2023-01-13T09:31:58.271Z,8.94
2023-01-13T09:34:44.833Z,8.97
2023-01-13T09:37:12.552Z,8.97
2023-01-13T09:39:40.690Z,8.97
2023-01-13T09:42:58.967Z,8.97
2023-01-13T09:45:43.908Z,8.96
2023-01-13T09:48:51.973Z,8.98
2023-01-13T09:51:41.000Z,9.01
2023-01-13T09:54:32.120Z,9.02
2023-01-13T09:57:01.072Z,9.06
2023-01-13T09:59:36.412Z,9.10
2023-01-13T10:02:29.899Z,9.12
2023-01-13T10:05:32.318Z,9.17
2023-01-13T10:08:24.477Z,9.21
2023-01-13T10:11:00.231Z,9.19
2023-01-13T10:13:31.151Z,9.24
2023-01-13T10:16:36.811Z,9.25
2023-01-13T10:19:39.017Z,9.26
2023-01-13T10:22:38.942Z,9.31
2023-01-13T10:25:45.416Z,9.31
2023-01-13T10:28:19.461Z,9.36
2023-01-13T10:30:48.208Z,9.45
2023-01-13T10:33:29.990Z,9.56
2023-01-13T10:36:23.203Z,9.61
2023-01-13T10:38:51.956Z,9.66
2023-01-13T10:41:27.391Z,9.73
2023-01-13T10:44:09.373Z,9.79
2023-01-13T10:46:55.599Z,9.84
2023-01-13T10:49:32.745Z,9.86
2023-01-13T10:52:02.886Z,9.87
2023-01-13T10:54:31.284Z,9.93
2023-01-13T10:57:20.836Z,10.02
2023-01-13T10:59:49.284Z,10.10
2023-01-13T11:02:25.184Z,10.15
2023-01-13T11:04:53.932Z,10.22
2023-01-13T11:07:30.162Z,10.29
2023-01-13T11:10:09.553Z,10.39
2023-01-13T11:12:53.875Z,10.52
2023-01-13T11:15:28.806Z,10.66
2023-01-13T11:18:05.275Z,10.82
2023-01-13T11:20:42.530Z,10.99
2023-01-13T11:23:22.008Z,11.11
2023-01-13T11:25:58.004Z,11.19
2023-01-13T11:28:47.560Z,11.35
2023-01-13T11:31:33.973Z,11.52
2023-01-13T11:34:32.510Z,11.68
2023-01-13T11:37:03.221Z,11.84
2023-01-13T11:40:17.159Z,12.02
2023-01-13T11:42:58.428Z,12.16
2023-01-13T11:45:41.467Z,12.27
2023-01-13T11:48:17.882Z,12.44
2023-01-13T11:51:14.461Z,12.63
2023-01-13T11:54:14.594Z,12.78
2023-01-13T11:57:55.286Z,12.93
2023-01-13T12:00:53.948Z,13.04
2023-01-13T12:03:36.250Z,13.10
2023-01-13T12:06:34.622Z,13.18
2023-01-13T12:09:11.929Z,13.27
2023-01-13T12:12:22.452Z,13.34
2023-01-13T12:15:22.953Z,13.36
2023-01-13T12:18:12.889Z,13.37
2023-01-13T12:21:15.707Z,13.37
2023-01-13T12:24:41.593Z,13.36
2023-01-13T12:27:52.521Z,13.43
2023-01-13T12:30:28.754Z,13.56
2023-01-13T12:33:13.581Z,13.69
2023-01-13T12:35:58.209Z,13.90
2023-01-13T12:38:42.379Z,14.07
2023-01-13T12:41:33.574Z,14.32
2023-01-13T12:44:17.158Z,14.53
2023-01-13T12:46:56.860Z,14.72
2023-01-13T12:49:35.120Z,14.88
2023-01-13T12:52:15.681Z,15.03
2023-01-13T12:54:44.272Z,15.08
2023-01-13T12:57:24.977Z,15.13
2023-01-13T13:00:04.861Z,15.12
2023-01-13T13:02:36.831Z,15.18
2023-01-13T13:05:23.222Z,15.29
2023-01-13T13:08:12.783Z,15.49
2023-01-13T13:11:32.610Z,15.65
2023-01-13T13:14:03.793Z,15.78
2023-01-13T13:16:31.929Z,15.94
2023-01-13T13:19:21.283Z,16.17
2023-01-13T13:22:14.148Z,16.36
2023-01-13T13:25:03.536Z,16.52
2023-01-13T13:28:08.575Z,16.70
2023-01-13T13:30:42.740Z,16.87
2023-01-13T13:33:53.406Z,17.08
2023-01-13T13:37:04.853Z,17.22
2023-01-13T13:39:52.528Z,17.35
2023-01-13T13:42:48.349Z,17.47
2023-01-13T13:45:43.684Z,17.47
2023-01-13T13:48:31.122Z,17.65
2023-01-13T13:51:21.888Z,17.70
2023-01-13T13:53:49.838Z,17.72
2023-01-13T13:56:23.217Z,17.72
2023-01-13T13:58:52.376Z,17.64
2023-01-13T14:01:43.618Z,17.42
2023-01-13T14:04:23.069Z,17.05
2023-01-13T14:06:56.082Z,16.52
2023-01-13T14:09:25.907Z,16.13
2023-01-13T14:12:03.787Z,15.53
2023-01-13T14:14:31.356Z,15.01
2023-01-13T14:16:59.463Z,14.55
2023-01-13T14:19:35.235Z,14.17
2023-01-13T14:22:06.832Z,13.81
2023-01-13T14:24:44.802Z,13.50
2023-01-13T14:27:19.616Z,13.19
2023-01-13T14:29:47.690Z,12.91
2023-01-13T14:32:20.032Z,12.72
2023-01-13T14:34:48.034Z,12.45
2023-01-13T14:37:31.550Z,12.19
2023-01-13T14:39:59.410Z,12.06
2023-01-13T14:42:29.709Z,11.86
2023-01-13T14:44:57.659Z,11.72
2023-01-13T14:47:34.112Z,11.56
2023-01-13T14:50:11.048Z,11.41
2023-01-13T14:52:57.219Z,11.27
2023-01-13T14:55:41.421Z,11.19
2023-01-13T14:58:28.608Z,11.16
2023-01-13T15:01:39.595Z,11.11
2023-01-13T15:04:31.852Z,11.06
2023-01-13T15:07:01.320Z,10.98
2023-01-13T15:09:41.644Z,10.87
2023-01-13T15:12:35.729Z,10.73
2023-01-13T15:15:19.891Z,10.60
2023-01-13T15:17:47.574Z,10.48
2023-01-13T15:20:19.250Z,10.37
2023-01-13T15:22:48.073Z,10.30
2023-01-13T15:25:16.306Z,10.22
2023-01-13T15:27:46.196Z,10.16
2023-01-13T15:30:26.350Z,10.13
2023-01-13T15:32:58.415Z,10.07
2023-01-13T15:35:29.709Z,10.01
2023-01-13T15:37:58.167Z,9.95
2023-01-13T15:40:32.380Z,9.89
2023-01-13T15:43:18.580Z,9.82
2023-01-13T15:46:05.676Z,9.73
2023-01-13T15:48:33.696Z,9.65
2023-01-13T15:51:04.820Z,9.61
2023-01-13T15:53:36.890Z,9.58
2023-01-13T15:56:15.391Z,9.54
2023-01-13T15:58:43.019Z,9.50
2023-01-13T16:01:13.197Z,9.50
2023-01-13T16:03:40.767Z,9.44
2023-01-13T16:06:18.658Z,9.42
2023-01-13T16:08:46.608Z,9.40
2023-01-13T16:11:14.511Z,9.40
2023-01-13T16:13:42.116Z,9.38
2023-01-13T16:16:27.679Z,9.32
2023-01-13T16:18:55.652Z,9.29
2023-01-13T16:21:23.890Z,9.21
2023-01-13T16:23:52.096Z,9.18
2023-01-13T16:26:36.207Z,9.14
2023-01-13T16:29:04.623Z,9.10
2023-01-13T16:31:34.400Z,9.07
2023-01-13T16:34:03.294Z,9.05
2023-01-13T16:36:35.440Z,8.97
2023-01-13T16:39:04.789Z,8.98
2023-01-13T16:41:34.529Z,8.96
2023-01-13T16:44:06.152Z,8.97
2023-01-13T16:46:34.251Z,8.99
2023-01-13T16:49:06.851Z,9.02
2023-01-13T16:51:34.952Z,9.03
2023-01-13T16:54:05.306Z,9.02
2023-01-13T16:56:36.445Z,9.03
2023-01-13T16:59:14.191Z,9.07
2023-01-13T17:01:44.993Z,9.06
2023-01-13T17:04:18.449Z,9.06
2023-01-13T17:07:03.771Z,9.06
2023-01-13T17:09:31.631Z,9.03
2023-01-13T17:12:00.347Z,9.06
2023-01-13T17:14:27.890Z,9.03
2023-01-13T17:16:58.153Z,9.01
2023-01-13T17:19:26.147Z,8.98
2023-01-13T17:21:54.042Z,8.98
2023-01-13T17:24:21.866Z,8.96
2023-01-13T17:26:51.434Z,8.95
2023-01-13T17:29:25.845Z,8.91
2023-01-13T17:31:54.108Z,8.86
2023-01-13T17:34:22.485Z,8.84
2023-01-13T17:36:50.644Z,8.83
2023-01-13T17:39:25.245Z,8.85
2023-01-13T17:41:55.969Z,8.84
2023-01-13T17:44:23.743Z,8.81
2023-01-13T17:46:51.846Z,8.79
2023-01-13T17:49:21.869Z,8.79
2023-01-13T17:51:51.500Z,8.82
2023-01-13T17:54:19.962Z,8.83
2023-01-13T17:56:48.232Z,8.82
2023-01-13T17:59:19.431Z,8.84
2023-01-13T18:01:47.357Z,8.83
2023-01-13T18:04:24.505Z,8.84
2023-01-13T18:06:53.390Z,8.80
2023-01-13T18:09:21.799Z,8.81
2023-01-13T18:11:50.424Z,8.84
2023-01-13T18:14:19.037Z,8.84
2023-01-13T18:16:46.909Z,8.85
2023-01-13T18:19:35.083Z,8.86
2023-01-13T18:22:21.668Z,8.87
2023-01-13T18:25:07.856Z,8.86
2023-01-13T18:27:38.884Z,8.87
2023-01-13T18:30:07.349Z,8.84
2023-01-13T18:32:35.853Z,8.82
2023-01-13T18:35:10.308Z,8.82
2023-01-13T18:37:41.963Z,8.78
2023-01-13T18:40:13.454Z,8.76
2023-01-13T18:42:59.113Z,8.75
2023-01-13T18:45:31.156Z,8.74
2023-01-13T18:48:03.601Z,8.71
2023-01-13T18:50:34.624Z,8.69
2023-01-13T18:53:02.606Z,8.67
2023-01-13T18:55:30.221Z,8.68
2023-01-13T18:57:58.971Z,8.67
2023-01-13T19:00:27.469Z,8.68
2023-01-13T19:05:35.066Z,8.65
2023-01-13T19:08:03.791Z,8.67
2023-01-13T19:10:32.718Z,8.66
2023-01-13T19:13:01.710Z,8.66
2023-01-13T19:15:29.937Z,8.63
2023-01-13T19:17:57.914Z,8.65
2023-01-13T19:20:25.505Z,8.64
2023-01-13T19:22:56.481Z,8.58
2023-01-13T19:25:24.784Z,8.53
2023-01-13T19:27:52.715Z,8.51
2023-01-13T19:30:20.496Z,8.50
2023-01-13T19:32:48.345Z,8.48
2023-01-13T19:35:18.185Z,8.44
2023-01-13T19:37:46.219Z,8.38
2023-01-13T19:40:13.937Z,8.36
2023-01-13T19:43:03.039Z,8.33
2023-01-13T19:45:33.877Z,8.33
2023-01-13T19:48:04.597Z,8.30
2023-01-13T19:50:36.753Z,8.26
2023-01-13T19:53:05.622Z,8.22
2023-01-13T19:55:33.583Z,8.21
2023-01-13T19:58:02.030Z,8.23
2023-01-13T20:00:29.716Z,8.22
2023-01-13T20:03:03.212Z,8.26
2023-01-13T20:05:30.977Z,8.28
2023-01-13T20:07:58.905Z,8.31
2023-01-13T20:10:26.544Z,8.29
2023-01-13T20:12:54.679Z,8.26
2023-01-13T20:15:22.325Z,8.30
2023-01-13T20:17:50.611Z,8.31
2023-01-13T20:20:20.570Z,8.32
2023-01-13T20:22:49.737Z,8.32
2023-01-13T20:25:18.753Z,8.28
2023-01-13T20:27:47.411Z,8.30
2023-01-13T20:30:15.800Z,8.24
2023-01-13T20:32:44.761Z,8.20
2023-01-13T20:35:12.418Z,8.21
2023-01-13T20:37:42.267Z,8.19
2023-01-13T20:40:14.023Z,8.17
2023-01-13T20:42:45.402Z,8.12
2023-01-13T20:45:18.116Z,8.11
2023-01-13T20:47:47.385Z,8.11
2023-01-13T20:50:16.733Z,8.07
2023-01-13T20:52:46.025Z,8.04
2023-01-13T20:55:15.133Z,8.05
2023-01-13T20:57:43.480Z,8.04
2023-01-13T21:00:12.026Z,8.00
2023-01-13T21:02:41.936Z,8.00
2023-01-13T21:05:10.239Z,8.04
2023-01-13T21:07:38.445Z,8.05
2023-01-13T21:10:06.702Z,8.06
2023-01-13T21:12:53.431Z,8.08
2023-01-13T21:15:22.785Z,8.06
2023-01-13T21:18:10.596Z,8.05
2023-01-13T21:20:39.553Z,8.09
2023-01-13T21:23:08.559Z,8.09
2023-01-13T21:25:39.559Z,8.09
2023-01-13T21:28:11.547Z,8.09
2023-01-13T21:30:40.077Z,8.09
2023-01-13T21:33:11.180Z,8.10
2023-01-13T21:35:39.692Z,8.12
2023-01-13T21:38:07.881Z,8.09
2023-01-13T21:40:36.040Z,8.03
2023-01-13T21:43:22.789Z,7.98
2023-01-13T21:46:09.232Z,7.94
2023-01-13T21:48:37.320Z,7.90
2023-01-13T21:51:05.158Z,7.87
2023-01-13T21:53:35.799Z,7.85
2023-01-13T21:56:19.721Z,7.83
2023-01-13T21:58:47.702Z,7.81
2023-01-13T22:01:29.364Z,7.78
2023-01-13T22:04:23.762Z,7.77
2023-01-13T22:07:19.217Z,7.76
2023-01-13T22:09:49.523Z,7.74
2023-01-13T22:12:22.732Z,7.76
2023-01-13T22:14:56.233Z,7.78
2023-01-13T22:17:31.235Z,7.78
2023-01-13T22:20:01.344Z,7.79
2023-01-13T22:22:30.027Z,7.81
2023-01-13T22:24:58.246Z,7.82
2023-01-13T22:27:29.085Z,7.82
2023-01-13T22:29:59.066Z,7.82
2023-01-13T22:32:27.716Z,7.81
2023-01-13T22:34:57.957Z,7.80
2023-01-13T22:37:27.111Z,7.78
2023-01-13T22:39:57.040Z,7.77
2023-01-13T22:42:28.189Z,7.76
2023-01-13T22:44:57.471Z,7.73
2023-01-13T22:47:27.871Z,7.71
2023-01-13T22:49:58.262Z,7.67
2023-01-13T22:52:28.533Z,7.69
2023-01-13T22:54:57.424Z,7.72
2023-01-13T22:57:25.125Z,7.72
2023-01-13T22:59:53.354Z,7.75
2023-01-13T23:02:20.939Z,7.71
2023-01-13T23:04:49.281Z,7.71
2023-01-13T23:07:17.069Z,7.70
2023-01-13T23:09:46.301Z,7.73
2023-01-13T23:12:14.153Z,7.76
2023-01-13T23:14:42.123Z,7.75
2023-01-13T23:17:10.232Z,7.72
2023-01-13T23:19:38.189Z,7.65
2023-01-13T23:22:06.437Z,7.61
2023-01-13T23:24:34.405Z,7.55
2023-01-13T23:27:02.056Z,7.49
2023-01-13T23:29:29.963Z,7.44
2023-01-13T23:31:57.845Z,7.43
2023-01-13T23:34:25.853Z,7.38
2023-01-13T23:36:53.537Z,7.35
2023-01-13T23:39:21.594Z,7.34
2023-01-13T23:41:49.161Z,7.34
2023-01-13T23:44:17.086Z,7.33
2023-01-13T23:46:44.562Z,7.30
2023-01-13T23:49:12.518Z,7.32
2023-01-13T23:51:40.248Z,7.31
2023-01-13T23:54:08.258Z,7.30
2023-01-13T23:56:39.425Z,7.27
2023-01-13T23:59:08.065Z,7.28
